sensor_id;sensor_type;location;lat;lon;timestamp;P1;durP1;ratioP1;P2;durP2;ratioP2
4519;SDS011;2272;49.226;8.108;2023-11-21T00:02:21;2.20;;;2.10;;
4519;SDS011;2272;49.226;8.108;2023-11-21T00:04:48;2.47;;;2.17;;
4519;SDS011;2272;49.226;8.108;2023-11-21T00:07:16;3.90;;;3.00;;
4519;SDS011;2272;49.226;8.108;2023-11-21T00:09:43;7.07;;;2.37;;
4519;SDS011;2272;49.226;8.108;2023-11-21T00:12:09;3.80;;;2.70;;
4519;SDS011;2272;49.226;8.108;2023-11-21T00:14:36;2.33;;;2.23;;
4519;SDS011;2272;49.226;8.108;2023-11-21T00:17:03;6.03;;;2.70;;
4519;SDS011;2272;49.226;8.108;2023-11-21T00:19:31;6.23;;;2.50;;
4519;SDS011;2272;49.226;8.108;2023-11-21T00:21:58;13.53;;;3.80;;
4519;SDS011;2272;49.226;8.108;2023-11-21T00:24:26;5.57;;;2.67;;
4519;SDS011;2272;49.226;8.108;2023-11-21T00:26:53;3.73;;;3.10;;
4519;SDS011;2272;49.226;8.108;2023-11-21T00:29:19;2.70;;;2.50;;
4519;SDS011;2272;49.226;8.108;2023-11-21T00:31:46;2.83;;;2.60;;
4519;SDS011;2272;49.226;8.108;2023-11-21T00:34:13;4.93;;;2.63;;
4519;SDS011;2272;49.226;8.108;2023-11-21T00:36:40;5.33;;;2.47;;
4519;SDS011;2272;49.226;8.108;2023-11-21T00:39:06;5.97;;;3.30;;
4519;SDS011;2272;49.226;8.108;2023-11-21T00:41:35;8.20;;;3.33;;
4519;SDS011;2272;49.226;8.108;2023-11-21T00:44:02;10.57;;;2.97;;
4519;SDS011;2272;49.226;8.108;2023-11-21T00:46:29;3.40;;;2.70;;
4519;SDS011;2272;49.226;8.108;2023-11-21T00:48:56;8.67;;;4.00;;
4519;SDS011;2272;49.226;8.108;2023-11-21T00:51:23;3.23;;;2.90;;
4519;SDS011;2272;49.226;8.108;2023-11-21T00:53:50;2.83;;;2.63;;
4519;SDS011;2272;49.226;8.108;2023-11-21T00:56:16;10.10;;;3.57;;
4519;SDS011;2272;49.226;8.108;2023-11-21T00:58:45;6.37;;;3.20;;
4519;SDS011;2272;49.226;8.108;2023-11-21T01:01:14;5.60;;;3.23;;
4519;SDS011;2272;49.226;8.108;2023-11-21T01:03:41;3.53;;;3.20;;
4519;SDS011;2272;49.226;8.108;2023-11-21T01:06:08;2.10;;;2.00;;
4519;SDS011;2272;49.226;8.108;2023-11-21T01:08:35;6.87;;;3.70;;
4519;SDS011;2272;49.226;8.108;2023-11-21T01:11:02;7.50;;;3.03;;
4519;SDS011;2272;49.226;8.108;2023-11-21T01:13:29;4.20;;;3.53;;
4519;SDS011;2272;49.226;8.108;2023-11-21T01:15:57;9.50;;;3.27;;
4519;SDS011;2272;49.226;8.108;2023-11-21T01:18:24;4.73;;;3.57;;
4519;SDS011;2272;49.226;8.108;2023-11-21T01:20:51;6.53;;;3.10;;
4519;SDS011;2272;49.226;8.108;2023-11-21T01:23:18;2.93;;;2.83;;
4519;SDS011;2272;49.226;8.108;2023-11-21T01:25:44;8.20;;;2.97;;
4519;SDS011;2272;49.226;8.108;2023-11-21T01:28:11;6.17;;;2.70;;
4519;SDS011;2272;49.226;8.108;2023-11-21T01:30:38;5.60;;;3.27;;
4519;SDS011;2272;49.226;8.108;2023-11-21T01:33:06;5.50;;;3.13;;
4519;SDS011;2272;49.226;8.108;2023-11-21T01:35:33;3.70;;;2.57;;
4519;SDS011;2272;49.226;8.108;2023-11-21T01:38:00;8.23;;;2.60;;
4519;SDS011;2272;49.226;8.108;2023-11-21T01:40:28;8.70;;;3.27;;
4519;SDS011;2272;49.226;8.108;2023-11-21T01:42:55;3.80;;;2.73;;
4519;SDS011;2272;49.226;8.108;2023-11-21T01:45:22;4.80;;;2.57;;
4519;SDS011;2272;49.226;8.108;2023-11-21T01:47:50;2.87;;;2.67;;
4519;SDS011;2272;49.226;8.108;2023-11-21T01:50:18;5.60;;;2.40;;
4519;SDS011;2272;49.226;8.108;2023-11-21T01:52:47;5.17;;;2.63;;
4519;SDS011;2272;49.226;8.108;2023-11-21T01:55:15;9.10;;;2.70;;
4519;SDS011;2272;49.226;8.108;2023-11-21T01:57:44;6.47;;;2.30;;
4519;SDS011;2272;49.226;8.108;2023-11-21T02:00:12;7.27;;;2.70;;
4519;SDS011;2272;49.226;8.108;2023-11-21T02:02:44;5.70;;;3.10;;
4519;SDS011;2272;49.226;8.108;2023-11-21T02:05:11;4.83;;;2.87;;
4519;SDS011;2272;49.226;8.108;2023-11-21T02:07:40;5.17;;;2.30;;
4519;SDS011;2272;49.226;8.108;2023-11-21T02:10:08;13.77;;;2.93;;
4519;SDS011;2272;49.226;8.108;2023-11-21T02:12:39;3.47;;;2.43;;
4519;SDS011;2272;49.226;8.108;2023-11-21T02:15:07;3.90;;;3.17;;
4519;SDS011;2272;49.226;8.108;2023-11-21T02:17:40;10.03;;;3.10;;
4519;SDS011;2272;49.226;8.108;2023-11-21T02:20:08;3.63;;;3.33;;
4519;SDS011;2272;49.226;8.108;2023-11-21T02:22:41;8.40;;;2.80;;
4519;SDS011;2272;49.226;8.108;2023-11-21T02:25:10;5.17;;;3.00;;
4519;SDS011;2272;49.226;8.108;2023-11-21T02:27:37;2.90;;;2.73;;
4519;SDS011;2272;49.226;8.108;2023-11-21T02:30:04;5.13;;;2.70;;
4519;SDS011;2272;49.226;8.108;2023-11-21T02:32:32;3.00;;;2.67;;
4519;SDS011;2272;49.226;8.108;2023-11-21T02:34:59;7.07;;;2.90;;
4519;SDS011;2272;49.226;8.108;2023-11-21T02:37:32;3.73;;;2.53;;
4519;SDS011;2272;49.226;8.108;2023-11-21T02:40:00;8.50;;;2.17;;
4519;SDS011;2272;49.226;8.108;2023-11-21T02:42:30;5.30;;;3.03;;
4519;SDS011;2272;49.226;8.108;2023-11-21T02:44:57;11.13;;;2.83;;
4519;SDS011;2272;49.226;8.108;2023-11-21T02:47:23;2.90;;;2.10;;
4519;SDS011;2272;49.226;8.108;2023-11-21T02:49:50;2.60;;;2.03;;
4519;SDS011;2272;49.226;8.108;2023-11-21T02:52:17;2.30;;;1.83;;
4519;SDS011;2272;49.226;8.108;2023-11-21T02:54:44;3.40;;;2.70;;
4519;SDS011;2272;49.226;8.108;2023-11-21T02:57:11;3.23;;;2.03;;
4519;SDS011;2272;49.226;8.108;2023-11-21T02:59:39;2.50;;;2.30;;
4519;SDS011;2272;49.226;8.108;2023-11-21T03:02:06;2.10;;;2.00;;
4519;SDS011;2272;49.226;8.108;2023-11-21T03:04:34;1.70;;;1.60;;
4519;SDS011;2272;49.226;8.108;2023-11-21T03:07:01;2.27;;;2.10;;
4519;SDS011;2272;49.226;8.108;2023-11-21T03:09:27;1.80;;;1.70;;
4519;SDS011;2272;49.226;8.108;2023-11-21T03:11:54;3.23;;;2.20;;
4519;SDS011;2272;49.226;8.108;2023-11-21T03:14:21;4.30;;;1.50;;
4519;SDS011;2272;49.226;8.108;2023-11-21T03:16:49;9.33;;;2.00;;
4519;SDS011;2272;49.226;8.108;2023-11-21T03:19:15;5.27;;;2.50;;
4519;SDS011;2272;49.226;8.108;2023-11-21T03:21:42;1.93;;;1.83;;
4519;SDS011;2272;49.226;8.108;2023-11-21T03:24:09;6.67;;;2.00;;
4519;SDS011;2272;49.226;8.108;2023-11-21T03:26:36;1.60;;;1.50;;
4519;SDS011;2272;49.226;8.108;2023-11-21T03:29:03;2.50;;;2.10;;
4519;SDS011;2272;49.226;8.108;2023-11-21T03:31:30;1.90;;;1.80;;
4519;SDS011;2272;49.226;8.108;2023-11-21T03:33:58;1.70;;;1.47;;
4519;SDS011;2272;49.226;8.108;2023-11-21T03:36:25;2.30;;;2.00;;
4519;SDS011;2272;49.226;8.108;2023-11-21T03:38:52;2.13;;;1.77;;
4519;SDS011;2272;49.226;8.108;2023-11-21T03:41:19;4.13;;;1.90;;
4519;SDS011;2272;49.226;8.108;2023-11-21T03:43:46;3.10;;;2.20;;
4519;SDS011;2272;49.226;8.108;2023-11-21T03:46:13;2.90;;;2.27;;
4519;SDS011;2272;49.226;8.108;2023-11-21T03:48:40;2.07;;;1.60;;
4519;SDS011;2272;49.226;8.108;2023-11-21T03:51:08;1.90;;;1.80;;
4519;SDS011;2272;49.226;8.108;2023-11-21T03:53:35;3.13;;;2.10;;
4519;SDS011;2272;49.226;8.108;2023-11-21T03:56:01;2.00;;;1.77;;
4519;SDS011;2272;49.226;8.108;2023-11-21T03:58:28;3.67;;;1.97;;
4519;SDS011;2272;49.226;8.108;2023-11-21T04:00:55;1.73;;;1.63;;
4519;SDS011;2272;49.226;8.108;2023-11-21T04:03:22;10.10;;;1.80;;
4519;SDS011;2272;49.226;8.108;2023-11-21T04:05:49;4.23;;;1.20;;
4519;SDS011;2272;49.226;8.108;2023-11-21T04:08:17;1.90;;;1.50;;
4519;SDS011;2272;49.226;8.108;2023-11-21T04:10:43;5.30;;;1.97;;
4519;SDS011;2272;49.226;8.108;2023-11-21T04:13:10;1.30;;;1.30;;
4519;SDS011;2272;49.226;8.108;2023-11-21T04:15:37;1.43;;;1.43;;
4519;SDS011;2272;49.226;8.108;2023-11-21T04:18:04;1.40;;;1.30;;
4519;SDS011;2272;49.226;8.108;2023-11-21T04:20:30;1.47;;;1.37;;
4519;SDS011;2272;49.226;8.108;2023-11-21T04:22:57;4.00;;;1.63;;
4519;SDS011;2272;49.226;8.108;2023-11-21T04:25:25;1.30;;;1.30;;
4519;SDS011;2272;49.226;8.108;2023-11-21T04:27:53;2.73;;;1.57;;
4519;SDS011;2272;49.226;8.108;2023-11-21T04:30:19;2.23;;;1.50;;
4519;SDS011;2272;49.226;8.108;2023-11-21T04:32:46;1.40;;;1.30;;
4519;SDS011;2272;49.226;8.108;2023-11-21T04:35:13;2.20;;;1.50;;
4519;SDS011;2272;49.226;8.108;2023-11-21T04:37:40;1.07;;;1.07;;
4519;SDS011;2272;49.226;8.108;2023-11-21T04:40:07;1.43;;;1.33;;
4519;SDS011;2272;49.226;8.108;2023-11-21T04:42:36;1.20;;;1.20;;
4519;SDS011;2272;49.226;8.108;2023-11-21T04:45:03;3.90;;;1.47;;
4519;SDS011;2272;49.226;8.108;2023-11-21T04:47:34;4.10;;;1.30;;
4519;SDS011;2272;49.226;8.108;2023-11-21T04:50:00;1.57;;;1.47;;
4519;SDS011;2272;49.226;8.108;2023-11-21T04:52:27;1.43;;;1.30;;
4519;SDS011;2272;49.226;8.108;2023-11-21T04:54:54;1.37;;;1.37;;
4519;SDS011;2272;49.226;8.108;2023-11-21T04:57:23;1.00;;;1.00;;
4519;SDS011;2272;49.226;8.108;2023-11-21T04:59:50;1.10;;;1.10;;
4519;SDS011;2272;49.226;8.108;2023-11-21T05:02:17;1.43;;;1.33;;
4519;SDS011;2272;49.226;8.108;2023-11-21T05:04:44;1.93;;;1.83;;
4519;SDS011;2272;49.226;8.108;2023-11-21T05:07:21;1.60;;;1.60;;
4519;SDS011;2272;49.226;8.108;2023-11-21T05:09:48;5.53;;;1.70;;
4519;SDS011;2272;49.226;8.108;2023-11-21T05:12:15;2.27;;;2.17;;
4519;SDS011;2272;49.226;8.108;2023-11-21T05:14:41;1.30;;;1.30;;
4519;SDS011;2272;49.226;8.108;2023-11-21T05:17:09;2.90;;;1.83;;
4519;SDS011;2272;49.226;8.108;2023-11-21T05:19:36;7.20;;;1.50;;
4519;SDS011;2272;49.226;8.108;2023-11-21T05:22:04;2.80;;;2.60;;
4519;SDS011;2272;49.226;8.108;2023-11-21T05:24:31;1.77;;;1.47;;
4519;SDS011;2272;49.226;8.108;2023-11-21T05:26:57;3.23;;;1.70;;
4519;SDS011;2272;49.226;8.108;2023-11-21T05:29:24;1.83;;;1.73;;
4519;SDS011;2272;49.226;8.108;2023-11-21T05:31:52;2.20;;;1.40;;
4519;SDS011;2272;49.226;8.108;2023-11-21T05:34:20;2.30;;;1.63;;
4519;SDS011;2272;49.226;8.108;2023-11-21T05:36:49;1.27;;;1.27;;
4519;SDS011;2272;49.226;8.108;2023-11-21T05:39:16;1.70;;;1.60;;
4519;SDS011;2272;49.226;8.108;2023-11-21T05:41:43;1.80;;;1.30;;
4519;SDS011;2272;49.226;8.108;2023-11-21T05:44:10;1.40;;;1.40;;
4519;SDS011;2272;49.226;8.108;2023-11-21T05:46:39;1.23;;;1.23;;
4519;SDS011;2272;49.226;8.108;2023-11-21T05:49:07;1.40;;;1.33;;
4519;SDS011;2272;49.226;8.108;2023-11-21T05:51:35;1.70;;;1.70;;
4519;SDS011;2272;49.226;8.108;2023-11-21T05:54:02;1.60;;;1.50;;
4519;SDS011;2272;49.226;8.108;2023-11-21T05:56:29;1.70;;;1.70;;
4519;SDS011;2272;49.226;8.108;2023-11-21T05:58:56;2.10;;;1.93;;
4519;SDS011;2272;49.226;8.108;2023-11-21T06:01:23;1.80;;;1.20;;
4519;SDS011;2272;49.226;8.108;2023-11-21T06:03:53;2.30;;;1.80;;
4519;SDS011;2272;49.226;8.108;2023-11-21T06:06:19;1.33;;;1.33;;
4519;SDS011;2272;49.226;8.108;2023-11-21T06:08:48;1.30;;;1.30;;
4519;SDS011;2272;49.226;8.108;2023-11-21T06:11:15;1.10;;;1.10;;
4519;SDS011;2272;49.226;8.108;2023-11-21T06:13:42;3.47;;;1.70;;
4519;SDS011;2272;49.226;8.108;2023-11-21T06:16:09;1.50;;;1.50;;
4519;SDS011;2272;49.226;8.108;2023-11-21T06:18:38;1.40;;;1.30;;
4519;SDS011;2272;49.226;8.108;2023-11-21T06:21:05;3.30;;;1.93;;
4519;SDS011;2272;49.226;8.108;2023-11-21T06:23:32;1.60;;;1.50;;
4519;SDS011;2272;49.226;8.108;2023-11-21T06:26:00;1.50;;;1.50;;
4519;SDS011;2272;49.226;8.108;2023-11-21T06:28:27;1.30;;;1.30;;
4519;SDS011;2272;49.226;8.108;2023-11-21T06:30:53;1.50;;;1.50;;
4519;SDS011;2272;49.226;8.108;2023-11-21T06:33:20;2.30;;;2.20;;
4519;SDS011;2272;49.226;8.108;2023-11-21T06:35:47;1.40;;;1.30;;
4519;SDS011;2272;49.226;8.108;2023-11-21T06:38:14;4.63;;;1.90;;
4519;SDS011;2272;49.226;8.108;2023-11-21T06:40:41;1.60;;;1.50;;
4519;SDS011;2272;49.226;8.108;2023-11-21T06:43:10;1.30;;;1.30;;
4519;SDS011;2272;49.226;8.108;2023-11-21T06:45:39;1.70;;;1.60;;
4519;SDS011;2272;49.226;8.108;2023-11-21T06:48:06;1.97;;;1.87;;
4519;SDS011;2272;49.226;8.108;2023-11-21T06:50:32;1.70;;;1.60;;
4519;SDS011;2272;49.226;8.108;2023-11-21T06:52:59;4.10;;;1.43;;
4519;SDS011;2272;49.226;8.108;2023-11-21T06:55:29;3.13;;;1.80;;
4519;SDS011;2272;49.226;8.108;2023-11-21T06:57:56;11.20;;;1.93;;
4519;SDS011;2272;49.226;8.108;2023-11-21T07:00:24;2.37;;;2.27;;
4519;SDS011;2272;49.226;8.108;2023-11-21T07:02:52;3.70;;;2.33;;
4519;SDS011;2272;49.226;8.108;2023-11-21T07:05:20;2.10;;;2.00;;
4519;SDS011;2272;49.226;8.108;2023-11-21T07:07:47;2.17;;;1.97;;
4519;SDS011;2272;49.226;8.108;2023-11-21T07:10:14;4.10;;;3.80;;
4519;SDS011;2272;49.226;8.108;2023-11-21T07:12:40;2.17;;;2.07;;
4519;SDS011;2272;49.226;8.108;2023-11-21T07:15:08;3.20;;;3.07;;
4519;SDS011;2272;49.226;8.108;2023-11-21T07:17:36;3.67;;;3.37;;
4519;SDS011;2272;49.226;8.108;2023-11-21T07:20:03;2.43;;;2.33;;
4519;SDS011;2272;49.226;8.108;2023-11-21T07:22:31;6.03;;;3.30;;
4519;SDS011;2272;49.226;8.108;2023-11-21T07:24:58;2.70;;;2.50;;
4519;SDS011;2272;49.226;8.108;2023-11-21T07:27:25;4.33;;;4.07;;
4519;SDS011;2272;49.226;8.108;2023-11-21T07:29:52;2.63;;;2.53;;
4519;SDS011;2272;49.226;8.108;2023-11-21T07:32:18;2.67;;;2.47;;
4519;SDS011;2272;49.226;8.108;2023-11-21T07:34:47;1.50;;;1.50;;
4519;SDS011;2272;49.226;8.108;2023-11-21T07:37:14;2.63;;;2.60;;
4519;SDS011;2272;49.226;8.108;2023-11-21T07:39:40;4.33;;;3.60;;
4519;SDS011;2272;49.226;8.108;2023-11-21T07:42:08;1.63;;;1.63;;
4519;SDS011;2272;49.226;8.108;2023-11-21T07:44:39;1.80;;;1.80;;
4519;SDS011;2272;49.226;8.108;2023-11-21T07:47:06;3.57;;;2.70;;
4519;SDS011;2272;49.226;8.108;2023-11-21T07:49:35;1.80;;;1.67;;
4519;SDS011;2272;49.226;8.108;2023-11-21T07:52:03;1.50;;;1.50;;
4519;SDS011;2272;49.226;8.108;2023-11-21T07:54:30;1.43;;;1.33;;
4519;SDS011;2272;49.226;8.108;2023-11-21T07:56:56;1.50;;;1.50;;
4519;SDS011;2272;49.226;8.108;2023-11-21T07:59:23;1.60;;;1.50;;
4519;SDS011;2272;49.226;8.108;2023-11-21T08:01:50;1.20;;;1.20;;
4519;SDS011;2272;49.226;8.108;2023-11-21T08:04:16;1.27;;;1.27;;
4519;SDS011;2272;49.226;8.108;2023-11-21T08:06:43;1.60;;;1.50;;
4519;SDS011;2272;49.226;8.108;2023-11-21T08:09:11;1.47;;;1.30;;
4519;SDS011;2272;49.226;8.108;2023-11-21T08:11:38;2.40;;;1.17;;
4519;SDS011;2272;49.226;8.108;2023-11-21T08:14:05;1.07;;;1.07;;
4519;SDS011;2272;49.226;8.108;2023-11-21T08:16:31;0.97;;;0.97;;
4519;SDS011;2272;49.226;8.108;2023-11-21T08:18:58;1.60;;;1.50;;
4519;SDS011;2272;49.226;8.108;2023-11-21T08:21:25;1.37;;;1.27;;
4519;SDS011;2272;49.226;8.108;2023-11-21T08:23:54;1.43;;;1.43;;
4519;SDS011;2272;49.226;8.108;2023-11-21T08:26:22;1.30;;;1.20;;
4519;SDS011;2272;49.226;8.108;2023-11-21T08:28:49;1.40;;;1.40;;
4519;SDS011;2272;49.226;8.108;2023-11-21T08:31:17;1.53;;;1.27;;
4519;SDS011;2272;49.226;8.108;2023-11-21T08:33:49;2.43;;;2.23;;
4519;SDS011;2272;49.226;8.108;2023-11-21T08:36:16;1.90;;;1.80;;
4519;SDS011;2272;49.226;8.108;2023-11-21T08:38:42;1.80;;;1.80;;
4519;SDS011;2272;49.226;8.108;2023-11-21T08:41:09;2.83;;;2.63;;
4519;SDS011;2272;49.226;8.108;2023-11-21T08:43:38;2.00;;;1.87;;
4519;SDS011;2272;49.226;8.108;2023-11-21T08:46:05;2.17;;;2.07;;
4519;SDS011;2272;49.226;8.108;2023-11-21T08:48:33;2.93;;;1.80;;
4519;SDS011;2272;49.226;8.108;2023-11-21T08:51:01;1.70;;;1.70;;
4519;SDS011;2272;49.226;8.108;2023-11-21T08:53:28;3.37;;;1.40;;
4519;SDS011;2272;49.226;8.108;2023-11-21T08:55:55;2.60;;;1.03;;
4519;SDS011;2272;49.226;8.108;2023-11-21T08:58:22;3.63;;;1.43;;
4519;SDS011;2272;49.226;8.108;2023-11-21T09:00:50;1.33;;;1.13;;
4519;SDS011;2272;49.226;8.108;2023-11-21T09:03:17;1.13;;;1.03;;
4519;SDS011;2272;49.226;8.108;2023-11-21T09:05:46;1.10;;;0.90;;
4519;SDS011;2272;49.226;8.108;2023-11-21T09:08:13;1.57;;;0.90;;
4519;SDS011;2272;49.226;8.108;2023-11-21T09:10:40;1.63;;;0.90;;
4519;SDS011;2272;49.226;8.108;2023-11-21T09:13:08;1.03;;;0.90;;
4519;SDS011;2272;49.226;8.108;2023-11-21T09:15:35;0.87;;;0.87;;
4519;SDS011;2272;49.226;8.108;2023-11-21T09:18:03;1.57;;;1.20;;
4519;SDS011;2272;49.226;8.108;2023-11-21T09:20:30;0.90;;;0.90;;
4519;SDS011;2272;49.226;8.108;2023-11-21T09:22:57;1.00;;;0.90;;
4519;SDS011;2272;49.226;8.108;2023-11-21T09:25:23;0.80;;;0.80;;
4519;SDS011;2272;49.226;8.108;2023-11-21T09:27:50;1.10;;;1.10;;
4519;SDS011;2272;49.226;8.108;2023-11-21T09:30:17;1.60;;;1.20;;
4519;SDS011;2272;49.226;8.108;2023-11-21T09:32:44;1.87;;;1.77;;
4519;SDS011;2272;49.226;8.108;2023-11-21T09:35:13;0.90;;;0.90;;
4519;SDS011;2272;49.226;8.108;2023-11-21T09:37:41;5.77;;;1.00;;
4519;SDS011;2272;49.226;8.108;2023-11-21T09:40:09;1.20;;;1.10;;
4519;SDS011;2272;49.226;8.108;2023-11-21T09:42:39;5.33;;;1.33;;
4519;SDS011;2272;49.226;8.108;2023-11-21T09:45:09;1.07;;;1.07;;
4519;SDS011;2272;49.226;8.108;2023-11-21T09:47:45;1.43;;;1.27;;
4519;SDS011;2272;49.226;8.108;2023-11-21T09:50:14;1.80;;;1.70;;
4519;SDS011;2272;49.226;8.108;2023-11-21T09:52:44;1.17;;;1.07;;
4519;SDS011;2272;49.226;8.108;2023-11-21T09:55:26;0.90;;;0.90;;
4519;SDS011;2272;49.226;8.108;2023-11-21T09:57:55;1.37;;;1.37;;
4519;SDS011;2272;49.226;8.108;2023-11-21T10:00:22;4.03;;;1.30;;
4519;SDS011;2272;49.226;8.108;2023-11-21T10:02:49;1.27;;;1.27;;
4519;SDS011;2272;49.226;8.108;2023-11-21T10:05:19;1.23;;;1.13;;
4519;SDS011;2272;49.226;8.108;2023-11-21T10:07:47;1.30;;;1.20;;
4519;SDS011;2272;49.226;8.108;2023-11-21T10:10:16;1.00;;;1.00;;
4519;SDS011;2272;49.226;8.108;2023-11-21T10:12:50;1.40;;;1.20;;
4519;SDS011;2272;49.226;8.108;2023-11-21T10:15:21;1.27;;;1.13;;
4519;SDS011;2272;49.226;8.108;2023-11-21T10:17:50;1.70;;;0.93;;
4519;SDS011;2272;49.226;8.108;2023-11-21T10:20:20;4.93;;;1.63;;
4519;SDS011;2272;49.226;8.108;2023-11-21T10:22:49;1.47;;;1.40;;
4519;SDS011;2272;49.226;8.108;2023-11-21T10:25:16;1.13;;;1.13;;
4519;SDS011;2272;49.226;8.108;2023-11-21T10:27:46;1.13;;;1.13;;
4519;SDS011;2272;49.226;8.108;2023-11-21T10:30:15;1.20;;;1.20;;
4519;SDS011;2272;49.226;8.108;2023-11-21T10:32:42;1.30;;;1.20;;
4519;SDS011;2272;49.226;8.108;2023-11-21T10:35:10;1.30;;;1.20;;
4519;SDS011;2272;49.226;8.108;2023-11-21T10:37:38;2.93;;;1.10;;
4519;SDS011;2272;49.226;8.108;2023-11-21T10:40:06;1.23;;;1.23;;
4519;SDS011;2272;49.226;8.108;2023-11-21T10:42:34;2.60;;;1.13;;
4519;SDS011;2272;49.226;8.108;2023-11-21T10:45:01;2.57;;;2.40;;
4519;SDS011;2272;49.226;8.108;2023-11-21T10:47:30;1.00;;;1.00;;
4519;SDS011;2272;49.226;8.108;2023-11-21T10:49:58;0.90;;;0.90;;
4519;SDS011;2272;49.226;8.108;2023-11-21T10:52:27;0.77;;;0.77;;
4519;SDS011;2272;49.226;8.108;2023-11-21T10:54:55;0.80;;;0.80;;
4519;SDS011;2272;49.226;8.108;2023-11-21T10:57:24;0.90;;;0.90;;
4519;SDS011;2272;49.226;8.108;2023-11-21T10:59:51;0.80;;;0.80;;
4519;SDS011;2272;49.226;8.108;2023-11-21T11:02:21;3.50;;;1.17;;
4519;SDS011;2272;49.226;8.108;2023-11-21T11:04:53;0.80;;;0.80;;
4519;SDS011;2272;49.226;8.108;2023-11-21T11:07:21;1.23;;;0.83;;
4519;SDS011;2272;49.226;8.108;2023-11-21T11:09:56;1.70;;;1.60;;
4519;SDS011;2272;49.226;8.108;2023-11-21T11:12:25;1.60;;;1.60;;
4519;SDS011;2272;49.226;8.108;2023-11-21T11:14:53;3.67;;;1.40;;
4519;SDS011;2272;49.226;8.108;2023-11-21T11:17:21;2.10;;;1.97;;
4519;SDS011;2272;49.226;8.108;2023-11-21T11:19:51;1.77;;;1.50;;
4519;SDS011;2272;49.226;8.108;2023-11-21T11:22:20;1.47;;;1.30;;
4519;SDS011;2272;49.226;8.108;2023-11-21T11:25:14;1.83;;;1.53;;
4519;SDS011;2272;49.226;8.108;2023-11-21T11:27:54;1.37;;;1.37;;
4519;SDS011;2272;49.226;8.108;2023-11-21T11:30:30;2.27;;;1.67;;
4519;SDS011;2272;49.226;8.108;2023-11-21T11:33:08;2.20;;;2.00;;
4519;SDS011;2272;49.226;8.108;2023-11-21T11:35:42;2.10;;;2.00;;
4519;SDS011;2272;49.226;8.108;2023-11-21T11:38:16;2.30;;;2.20;;
4519;SDS011;2272;49.226;8.108;2023-11-21T11:40:46;2.43;;;2.23;;
4519;SDS011;2272;49.226;8.108;2023-11-21T11:43:13;2.20;;;2.10;;
4519;SDS011;2272;49.226;8.108;2023-11-21T11:45:50;1.93;;;1.83;;
4519;SDS011;2272;49.226;8.108;2023-11-21T11:48:19;3.20;;;1.57;;
4519;SDS011;2272;49.226;8.108;2023-11-21T11:51:01;1.53;;;1.43;;
4519;SDS011;2272;49.226;8.108;2023-11-21T11:53:33;1.00;;;1.00;;
4519;SDS011;2272;49.226;8.108;2023-11-21T11:58:50;0.90;;;0.60;;
4519;SDS011;2272;49.226;8.108;2023-11-21T12:01:18;1.40;;;0.83;;
4519;SDS011;2272;49.226;8.108;2023-11-21T12:03:47;1.40;;;0.83;;
4519;SDS011;2272;49.226;8.108;2023-11-21T12:06:55;0.70;;;0.60;;
4519;SDS011;2272;49.226;8.108;2023-11-21T12:09:25;0.70;;;0.70;;
4519;SDS011;2272;49.226;8.108;2023-11-21T12:11:54;0.90;;;0.73;;
4519;SDS011;2272;49.226;8.108;2023-11-21T12:14:21;1.07;;;0.57;;
4519;SDS011;2272;49.226;8.108;2023-11-21T12:16:49;0.50;;;0.50;;
4519;SDS011;2272;49.226;8.108;2023-11-21T12:19:16;0.50;;;0.50;;
4519;SDS011;2272;49.226;8.108;2023-11-21T12:21:43;0.60;;;0.60;;
4519;SDS011;2272;49.226;8.108;2023-11-21T12:24:10;1.10;;;0.80;;
4519;SDS011;2272;49.226;8.108;2023-11-21T12:26:38;1.47;;;0.60;;
4519;SDS011;2272;49.226;8.108;2023-11-21T12:29:06;1.43;;;0.70;;
4519;SDS011;2272;49.226;8.108;2023-11-21T12:31:33;0.80;;;0.80;;
4519;SDS011;2272;49.226;8.108;2023-11-21T12:34:01;5.40;;;0.80;;
4519;SDS011;2272;49.226;8.108;2023-11-21T12:36:28;0.90;;;0.70;;
4519;SDS011;2272;49.226;8.108;2023-11-21T12:38:55;1.20;;;0.87;;
4519;SDS011;2272;49.226;8.108;2023-11-21T12:41:22;1.13;;;0.90;;
4519;SDS011;2272;49.226;8.108;2023-11-21T12:43:49;8.00;;;1.20;;
4519;SDS011;2272;49.226;8.108;2023-11-21T12:46:17;1.80;;;0.93;;
4519;SDS011;2272;49.226;8.108;2023-11-21T12:48:45;1.27;;;1.03;;
4519;SDS011;2272;49.226;8.108;2023-11-21T12:51:12;1.43;;;0.90;;
4519;SDS011;2272;49.226;8.108;2023-11-21T12:53:41;4.20;;;0.90;;
4519;SDS011;2272;49.226;8.108;2023-11-21T12:56:09;1.40;;;1.07;;
4519;SDS011;2272;49.226;8.108;2023-11-21T12:58:36;2.20;;;1.07;;
4519;SDS011;2272;49.226;8.108;2023-11-21T13:01:05;0.83;;;0.80;;
4519;SDS011;2272;49.226;8.108;2023-11-21T13:03:38;1.00;;;1.00;;
4519;SDS011;2272;49.226;8.108;2023-11-21T13:06:05;2.30;;;1.07;;
4519;SDS011;2272;49.226;8.108;2023-11-21T13:08:33;0.80;;;0.80;;
4519;SDS011;2272;49.226;8.108;2023-11-21T13:11:00;2.40;;;0.80;;
4519;SDS011;2272;49.226;8.108;2023-11-21T13:13:28;4.67;;;1.53;;
4519;SDS011;2272;49.226;8.108;2023-11-21T13:15:56;2.03;;;1.80;;
4519;SDS011;2272;49.226;8.108;2023-11-21T13:18:26;2.40;;;1.10;;
4519;SDS011;2272;49.226;8.108;2023-11-21T13:20:55;4.93;;;1.20;;
4519;SDS011;2272;49.226;8.108;2023-11-21T13:23:22;2.13;;;1.20;;
4519;SDS011;2272;49.226;8.108;2023-11-21T13:25:49;9.00;;;2.20;;
4519;SDS011;2272;49.226;8.108;2023-11-21T13:28:16;8.90;;;2.23;;
4519;SDS011;2272;49.226;8.108;2023-11-21T13:30:43;4.53;;;2.93;;
4519;SDS011;2272;49.226;8.108;2023-11-21T13:33:10;2.23;;;1.20;;
4519;SDS011;2272;49.226;8.108;2023-11-21T13:35:42;1.87;;;1.77;;
4519;SDS011;2272;49.226;8.108;2023-11-21T13:38:14;1.63;;;1.53;;
4519;SDS011;2272;49.226;8.108;2023-11-21T13:40:42;1.83;;;1.37;;
4519;SDS011;2272;49.226;8.108;2023-11-21T13:43:15;9.37;;;1.43;;
4519;SDS011;2272;49.226;8.108;2023-11-21T13:45:45;2.10;;;1.33;;
4519;SDS011;2272;49.226;8.108;2023-11-21T13:48:13;2.83;;;1.53;;
4519;SDS011;2272;49.226;8.108;2023-11-21T13:50:44;7.57;;;1.50;;
4519;SDS011;2272;49.226;8.108;2023-11-21T13:53:15;5.43;;;3.60;;
4519;SDS011;2272;49.226;8.108;2023-11-21T13:55:47;3.27;;;2.00;;
4519;SDS011;2272;49.226;8.108;2023-11-21T13:58:14;3.50;;;1.20;;
4519;SDS011;2272;49.226;8.108;2023-11-21T14:00:47;1.30;;;1.10;;
4519;SDS011;2272;49.226;8.108;2023-11-21T14:03:21;2.03;;;1.20;;
4519;SDS011;2272;49.226;8.108;2023-11-21T14:05:57;1.80;;;1.43;;
4519;SDS011;2272;49.226;8.108;2023-11-21T14:08:27;3.53;;;1.50;;
4519;SDS011;2272;49.226;8.108;2023-11-21T14:10:54;3.87;;;1.60;;
4519;SDS011;2272;49.226;8.108;2023-11-21T14:13:22;2.70;;;1.20;;
4519;SDS011;2272;49.226;8.108;2023-11-21T14:15:49;3.30;;;1.60;;
4519;SDS011;2272;49.226;8.108;2023-11-21T14:18:22;1.57;;;1.47;;
4519;SDS011;2272;49.226;8.108;2023-11-21T14:20:57;3.07;;;1.63;;
4519;SDS011;2272;49.226;8.108;2023-11-21T14:23:25;1.77;;;1.67;;
4519;SDS011;2272;49.226;8.108;2023-11-21T14:25:54;1.53;;;1.43;;
4519;SDS011;2272;49.226;8.108;2023-11-21T14:28:21;2.07;;;1.50;;
4519;SDS011;2272;49.226;8.108;2023-11-21T14:30:49;2.90;;;1.73;;
4519;SDS011;2272;49.226;8.108;2023-11-21T14:33:16;3.87;;;2.03;;
4519;SDS011;2272;49.226;8.108;2023-11-21T14:35:43;3.17;;;1.60;;
4519;SDS011;2272;49.226;8.108;2023-11-21T14:38:09;5.60;;;1.97;;
4519;SDS011;2272;49.226;8.108;2023-11-21T14:40:37;4.20;;;2.23;;
4519;SDS011;2272;49.226;8.108;2023-11-21T14:43:04;4.50;;;1.73;;
4519;SDS011;2272;49.226;8.108;2023-11-21T14:45:31;3.53;;;2.10;;
4519;SDS011;2272;49.226;8.108;2023-11-21T14:47:59;1.90;;;1.80;;
4519;SDS011;2272;49.226;8.108;2023-11-21T14:50:31;3.37;;;2.13;;
4519;SDS011;2272;49.226;8.108;2023-11-21T14:53:08;1.50;;;1.40;;
4519;SDS011;2272;49.226;8.108;2023-11-21T14:55:38;10.80;;;2.00;;
4519;SDS011;2272;49.226;8.108;2023-11-21T14:58:18;6.07;;;2.30;;
4519;SDS011;2272;49.226;8.108;2023-11-21T15:00:51;3.37;;;1.50;;
4519;SDS011;2272;49.226;8.108;2023-11-21T15:03:22;7.80;;;1.90;;
4519;SDS011;2272;49.226;8.108;2023-11-21T15:06:07;2.00;;;1.90;;
4519;SDS011;2272;49.226;8.108;2023-11-21T15:08:44;5.60;;;3.20;;
4519;SDS011;2272;49.226;8.108;2023-11-21T15:11:19;2.67;;;2.57;;
4519;SDS011;2272;49.226;8.108;2023-11-21T15:13:50;6.83;;;3.80;;
4519;SDS011;2272;49.226;8.108;2023-11-21T15:16:18;7.90;;;4.70;;
4519;SDS011;2272;49.226;8.108;2023-11-21T15:18:44;16.50;;;4.47;;
4519;SDS011;2272;49.226;8.108;2023-11-21T15:21:11;4.37;;;3.23;;
4519;SDS011;2272;49.226;8.108;2023-11-21T15:23:38;3.30;;;2.83;;
4519;SDS011;2272;49.226;8.108;2023-11-21T15:26:06;3.90;;;2.27;;